Wetterdaten: aktuell Dienstag, 26.05.2020 22:35
Datum Zeit Temp. A. Feuchte A. Luftdruck Regen Wind Richtung Richtung Windben
26.05.2020 22:35 11,8 C 65 % 1031,8 hPa 0,0 l/m 0,0 km/h N-NO 32 0,0 km/h
26.05.2020 22:30 12,1 C 63 % 1031,7 hPa 0,0 l/m 0,0 km/h N-NW 343 0,0 km/h
26.05.2020 22:29 12,1 C 63 % 1031,7 hPa 0,0 l/m 0,2 km/h N-NO 17 8,0 km/h
26.05.2020 22:25 12,0 C 63 % 1031,8 hPa 0,0 l/m 0,4 km/h N 354 11,3 km/h
26.05.2020 22:20 11,8 C 64 % 1032,0 hPa 0,0 l/m 0,0 km/h O-SO 121 0,0 km/h
26.05.2020 22:15 12,1 C 64 % 1031,9 hPa 0,0 l/m 0,0 km/h NW 315 0,0 km/h
26.05.2020 22:10 12,2 C 63 % 1031,7 hPa 0,0 l/m 0,0 km/h O 93 0,0 km/h
26.05.2020 22:09 12,2 C 63 % 1031,8 hPa 0,0 l/m 0,0 km/h O-NO 74 0,0 km/h
26.05.2020 22:05 12,2 C 63 % 1031,7 hPa 0,0 l/m 0,0 km/h S-SW 201 0,0 km/h
26.05.2020 22:00 12,2 C 63 % 1031,7 hPa 0,0 l/m 0,1 km/h O-SO 103 4,8 km/h
26.05.2020 21:55 12,2 C 63 % 1031,5 hPa 0,0 l/m 4,1 km/h N 353 20,9 km/h
26.05.2020 21:49 12,1 C 63 % 1031,2 hPa 0,0 l/m 9,6 km/h N-NW 330 22,5 km/h
26.05.2020 21:45 12,1 C 64 % 1031,3 hPa 0,0 l/m 8,0 km/h NW 307 24,1 km/h
26.05.2020 21:40 12,1 C 64 % 1031,4 hPa 0,0 l/m 5,9 km/h N-NW 337 20,9 km/h
26.05.2020 21:35 12,0 C 64 % 1031,3 hPa 0,0 l/m 8,2 km/h N 360 22,5 km/h
26.05.2020 21:29 11,9 C 64 % 1031,3 hPa 0,0 l/m 1,7 km/h N-NO 17 19,3 km/h
26.05.2020 21:25 12,0 C 64 % 1031,3 hPa 0,0 l/m 0,8 km/h N-NW 344 12,9 km/h
26.05.2020 21:20 12,2 C 63 % 1031,2 hPa 0,0 l/m 0,3 km/h N 7 8,0 km/h
26.05.2020 21:15 12,3 C 63 % 1031,1 hPa 0,0 l/m 0,0 km/h N 7 0,0 km/h
26.05.2020 21:14 12,3 C 63 % 1031,1 hPa 0,0 l/m 4,8 km/h N-NO 12 24,1 km/h
26.05.2020 21:10 12,4 C 63 % 1031,1 hPa 0,0 l/m 5,5 km/h N 3 24,1 km/h
26.05.2020 21:04 12,4 C 63 % 1030,8 hPa 0,0 l/m 10,3 km/h N-NO 17 19,3 km/h
26.05.2020 21:00 12,4 C 63 % 1030,8 hPa 0,0 l/m 7,5 km/h NO 38 22,5 km/h
26.05.2020 20:55 12,6 C 62 % 1030,7 hPa 0,0 l/m 1,1 km/h W-NW 297 14,5 km/h
26.05.2020 20:49 12,7 C 62 % 1030,7 hPa 0,0 l/m 5,4 km/h NO 34 24,1 km/h
26.05.2020 20:45 12,7 C 61 % 1030,6 hPa 0,0 l/m 0,4 km/h N-NW 341 17,7 km/h
26.05.2020 20:39 12,7 C 61 % 1030,6 hPa 0,0 l/m 9,3 km/h N-NO 29 32,2 km/h
26.05.2020 20:35 12,7 C 62 % 1030,5 hPa 0,0 l/m 0,0 km/h W-SW 258 1,6 km/h
26.05.2020 20:30 12,7 C 62 % 1030,6 hPa 0,0 l/m 2,6 km/h NO 40 19,3 km/h
26.05.2020 20:25 12,6 C 62 % 1030,6 hPa 0,0 l/m 4,8 km/h N 358 17,7 km/h
26.05.2020 20:20 12,4 C 63 % 1030,7 hPa 0,0 l/m 2,7 km/h N-NO 12 20,9 km/h
26.05.2020 20:14 12,6 C 65 % 1030,7 hPa 0,0 l/m 0,0 km/h S-SO 154 0,0 km/h
26.05.2020 20:10 12,7 C 63 % 1030,8 hPa 0,0 l/m 0,0 km/h W-SW 248 1,6 km/h
26.05.2020 20:05 12,6 C 63 % 1030,8 hPa 0,0 l/m 1,7 km/h N-NW 336 20,9 km/h
26.05.2020 20:00 12,3 C 64 % 1030,6 hPa 0,0 l/m 7,9 km/h W 273 24,1 km/h
26.05.2020 19:55 12,1 C 66 % 1030,8 hPa 0,0 l/m 0,0 km/h S-SO 156 0,0 km/h
26.05.2020 19:50 12,3 C 66 % 1030,8 hPa 0,0 l/m 0,0 km/h NW 321 0,0 km/h
26.05.2020 19:45 12,5 C 64 % 1030,6 hPa 0,0 l/m 0,0 km/h S 177 0,0 km/h
26.05.2020 19:40 12,5 C 63 % 1030,7 hPa 0,0 l/m 0,0 km/h S 177 0,0 km/h
26.05.2020 19:35 12,4 C 64 % 1030,7 hPa 0,0 l/m 0,0 km/h SW 223 0,0 km/h
26.05.2020 19:34 12,4 C 64 % 1030,7 hPa 0,0 l/m 0,1 km/h SW 223 3,2 km/h
26.05.2020 19:30 12,4 C 64 % 1030,8 hPa 0,0 l/m 0,1 km/h W-SW 243 3,2 km/h
26.05.2020 19:25 12,5 C 64 % 1030,9 hPa 0,0 l/m 0,2 km/h SO 144 6,4 km/h
26.05.2020 19:20 12,6 C 63 % 1030,7 hPa 0,0 l/m 0,0 km/h SO 131 0,0 km/h
26.05.2020 19:15 12,7 C 63 % 1030,7 hPa 0,0 l/m 0,0 km/h W 260 0,0 km/h
26.05.2020 19:14 12,7 C 63 % 1030,7 hPa 0,0 l/m 0,2 km/h W-NW 296 9,7 km/h
26.05.2020 19:10 12,8 C 62 % 1030,6 hPa 0,0 l/m 3,0 km/h N-NW 337 12,9 km/h
26.05.2020 19:09 12,8 C 62 % 1030,6 hPa 0,0 l/m 0,4 km/h W 277 11,3 km/h
26.05.2020 19:05 13,0 C 61 % 1030,6 hPa 0,0 l/m 0,0 km/h W-NW 284 0,0 km/h
26.05.2020 19:00 13,1 C 62 % 1030,5 hPa 0,0 l/m 3,4 km/h N-NW 331 19,3 km/h
26.05.2020 18:55 12,9 C 63 % 1030,5 hPa 0,0 l/m 0,0 km/h N-NW 345 1,6 km/h
26.05.2020 18:50 12,9 C 63 % 1030,3 hPa 0,0 l/m 2,9 km/h N 7 17,7 km/h
26.05.2020 18:45 12,9 C 63 % 1030,3 hPa 0,0 l/m 7,9 km/h N-NO 12 22,5 km/h
26.05.2020 18:40 12,8 C 64 % 1030,1 hPa 0,0 l/m 5,8 km/h N-NW 332 22,5 km/h
26.05.2020 18:35 12,6 C 64 % 1030,0 hPa 0,0 l/m 10,5 km/h N 352 22,5 km/h
26.05.2020 18:30 12,6 C 64 % 1029,9 hPa 0,0 l/m 22,0 km/h N-NW 345 38,6 km/h
26.05.2020 18:25 12,4 C 65 % 1029,9 hPa 0,0 l/m 16,0 km/h NW 312 20,9 km/h
26.05.2020 18:24 12,4 C 65 % 1029,9 hPa 0,0 l/m 15,3 km/h N 353 27,4 km/h
26.05.2020 18:20 12,4 C 66 % 1030,0 hPa 0,0 l/m 9,8 km/h N-NO 12 22,5 km/h
26.05.2020 18:15 12,4 C 66 % 1030,3 hPa 0,0 l/m 12,3 km/h N 2 25,7 km/h
26.05.2020 18:09 12,4 C 68 % 1030,3 hPa 0,0 l/m 12,6 km/h N 349 25,7 km/h
26.05.2020 18:04 12,4 C 68 % 1030,2 hPa 0,0 l/m 19,0 km/h N 360 29,0 km/h
26.05.2020 17:59 12,4 C 68 % 1030,0 hPa 0,0 l/m 20,7 km/h N 349 32,2 km/h
26.05.2020 17:55 12,6 C 68 % 1029,9 hPa 0,0 l/m 26,0 km/h N-NW 346 37,0 km/h
26.05.2020 17:50 12,7 C 68 % 1029,8 hPa 0,0 l/m 19,3 km/h N 356 30,6 km/h
26.05.2020 17:45 12,8 C 67 % 1029,9 hPa 0,0 l/m 21,4 km/h N-NW 336 32,2 km/h
26.05.2020 17:40 12,8 C 67 % 1029,7 hPa 0,0 l/m 23,6 km/h N 355 38,6 km/h
26.05.2020 17:35 13,0 C 66 % 1029,9 hPa 0,0 l/m 23,9 km/h N 356 35,4 km/h
26.05.2020 17:30 13,6 C 64 % 1030,1 hPa 0,0 l/m 27,0 km/h N 3 38,6 km/h
26.05.2020 17:25 13,9 C 61 % 1030,0 hPa 0,0 l/m 23,3 km/h N-NW 345 37,0 km/h
26.05.2020 17:20 14,1 C 59 % 1030,0 hPa 0,0 l/m 24,9 km/h N-NO 23 40,2 km/h
26.05.2020 17:15 14,2 C 60 % 1030,0 hPa 0,0 l/m 21,0 km/h N-NO 17 40,2 km/h
26.05.2020 17:10 13,9 C 61 % 1030,1 hPa 0,0 l/m 16,8 km/h N 3 27,4 km/h
26.05.2020 17:05 13,7 C 59 % 1030,0 hPa 0,0 l/m 17,0 km/h N 358 30,6 km/h
26.05.2020 17:00 13,7 C 60 % 1030,0 hPa 0,0 l/m 15,5 km/h N-NO 25 19,3 km/h
26.05.2020 16:59 13,8 C 60 % 1030,0 hPa 0,0 l/m 17,8 km/h N 357 27,4 km/h
26.05.2020 16:55 13,9 C 60 % 1030,1 hPa 0,0 l/m 24,9 km/h N-NW 331 25,7 km/h
26.05.2020 16:54 13,9 C 60 % 1030,1 hPa 0,0 l/m 17,9 km/h N-NO 17 30,6 km/h
26.05.2020 16:50 14,1 C 58 % 1030,1 hPa 0,0 l/m 19,0 km/h N 7 30,6 km/h
26.05.2020 16:45 14,4 C 58 % 1030,1 hPa 0,0 l/m 20,8 km/h N-NW 344 37,0 km/h
26.05.2020 16:40 14,7 C 58 % 1030,0 hPa 0,0 l/m 0,0 km/h NW 323 0,0 km/h
26.05.2020 16:39 14,8 C 58 % 1030,0 hPa 0,0 l/m 12,9 km/h N-NW 331 24,1 km/h
26.05.2020 16:35 14,9 C 57 % 1030,0 hPa 0,0 l/m 17,1 km/h N-NW 339 32,2 km/h
26.05.2020 16:30 14,9 C 58 % 1029,9 hPa 0,0 l/m 17,6 km/h N-NW 337 29,0 km/h
26.05.2020 16:25 14,9 C 57 % 1030,0 hPa 0,0 l/m 18,0 km/h NW 310 37,0 km/h
26.05.2020 16:19 15,0 C 57 % 1029,9 hPa 0,0 l/m 19,5 km/h N-NO 23 29,0 km/h
26.05.2020 16:15 15,2 C 56 % 1029,9 hPa 0,0 l/m 24,5 km/h N 7 33,8 km/h
26.05.2020 16:10 15,4 C 55 % 1029,9 hPa 0,0 l/m 19,6 km/h N-NO 17 38,6 km/h
26.05.2020 16:05 15,4 C 56 % 1030,0 hPa 0,0 l/m 19,1 km/h N 1 25,7 km/h
26.05.2020 16:04 15,4 C 56 % 1030,1 hPa 0,0 l/m 11,9 km/h N-NO 26 35,4 km/h
26.05.2020 16:00 15,1 C 57 % 1030,1 hPa 0,0 l/m 16,2 km/h N 360 25,7 km/h
26.05.2020 15:55 15,3 C 55 % 1030,1 hPa 0,0 l/m 20,5 km/h N 357 24,1 km/h
26.05.2020 15:54 15,3 C 55 % 1030,2 hPa 0,0 l/m 16,2 km/h N-NO 22 35,4 km/h
26.05.2020 15:49 15,3 C 56 % 1030,1 hPa 0,0 l/m 23,0 km/h N 2 35,4 km/h
26.05.2020 15:45 15,3 C 54 % 1030,0 hPa 0,0 l/m 16,5 km/h N-NW 341 30,6 km/h
26.05.2020 15:40 15,5 C 55 % 1029,9 hPa 0,0 l/m 14,1 km/h N 7 25,7 km/h
26.05.2020 15:35 15,4 C 54 % 1029,9 hPa 0,0 l/m 8,3 km/h NO 34 22,5 km/h
_ Min-Zeit 06:30 15:00 04:50 - 23:00 - - 23:00
Minimum _ 6,3 C 49 % 1028,3 hPa - 0,0 km/h - - 0,0 km/h
_ Max-Zeit 14:30 04:30 22:20 23:00 17:30 - - 15:10
Maximum _ 16,9 C 80 % 1032,0 hPa 0,0 l/m 27,0 km/h
N
- - 43,5 km/h
NW
Durchschnitt _ 11,3 C 68 % 1029,8 hPa #0,0 l/m 6,6 km/h N - 15,1 km/h